createdAt,value
2022-11-24T00:00:40.386Z,5.36
2022-11-24T00:01:40.378Z,5.36
2022-11-24T00:02:40.452Z,5.37
2022-11-24T00:03:40.395Z,5.37
2022-11-24T00:04:40.339Z,5.38
2022-11-24T00:05:40.312Z,5.39
2022-11-24T00:06:40.340Z,5.39
2022-11-24T00:07:40.340Z,5.40
2022-11-24T00:08:40.285Z,5.40
2022-11-24T00:09:40.309Z,5.40
2022-11-24T00:10:40.255Z,5.41
2022-11-24T00:11:40.242Z,5.41
2022-11-24T00:12:40.243Z,5.41
2022-11-24T00:13:40.222Z,5.42
2022-11-24T00:14:40.198Z,5.42
2022-11-24T00:15:40.229Z,5.42
2022-11-24T00:16:40.231Z,5.42
2022-11-24T00:17:40.154Z,5.42
2022-11-24T00:18:40.170Z,5.41
2022-11-24T00:19:40.131Z,5.42
2022-11-24T00:20:40.130Z,5.42
2022-11-24T00:21:40.121Z,5.42
2022-11-24T00:22:40.104Z,5.43
2022-11-24T00:23:40.100Z,5.43
2022-11-24T00:24:40.067Z,5.43
2022-11-24T00:25:40.062Z,5.43
2022-11-24T00:26:40.041Z,5.43
2022-11-24T00:27:40.030Z,5.44
2022-11-24T00:28:40.294Z,5.44
2022-11-24T00:29:39.997Z,5.45
2022-11-24T00:30:40.134Z,5.46
2022-11-24T00:31:39.979Z,5.46
2022-11-24T00:32:39.999Z,5.46
2022-11-24T00:33:39.947Z,5.47
2022-11-24T00:34:39.960Z,5.47
2022-11-24T00:35:39.919Z,5.47
2022-11-24T00:36:39.911Z,5.47
2022-11-24T00:37:39.953Z,5.46
2022-11-24T00:38:39.914Z,5.46
2022-11-24T00:39:39.905Z,5.47
2022-11-24T00:40:39.888Z,5.47
2022-11-24T00:41:39.840Z,5.47
2022-11-24T00:42:39.831Z,5.47
2022-11-24T00:43:39.819Z,5.47
2022-11-24T00:44:39.825Z,5.47
2022-11-24T00:45:39.876Z,5.47
2022-11-24T00:46:40.045Z,5.47
2022-11-24T00:47:39.776Z,5.47
2022-11-24T00:48:39.772Z,5.46
2022-11-24T00:49:39.748Z,5.46
2022-11-24T00:50:39.727Z,5.45
2022-11-24T00:51:39.722Z,5.45
2022-11-24T00:52:39.713Z,5.45
2022-11-24T00:53:39.682Z,5.45
2022-11-24T00:54:39.674Z,5.45
2022-11-24T00:55:39.661Z,5.45
2022-11-24T00:56:39.643Z,5.45
2022-11-24T00:57:39.636Z,5.45
2022-11-24T00:58:39.635Z,5.45
2022-11-24T00:59:39.604Z,5.45
2022-11-24T01:00:39.604Z,5.44
2022-11-24T01:01:39.623Z,5.44
2022-11-24T01:02:39.610Z,5.44
2022-11-24T01:03:39.549Z,5.44
2022-11-24T01:04:39.572Z,5.44
2022-11-24T01:05:39.521Z,5.43
2022-11-24T01:06:39.513Z,5.43
2022-11-24T01:07:39.564Z,5.43
2022-11-24T01:08:39.553Z,5.44
2022-11-24T01:09:39.490Z,5.44
2022-11-24T01:10:39.457Z,5.44
2022-11-24T01:11:39.443Z,5.44
2022-11-24T01:12:39.437Z,5.43
2022-11-24T01:13:39.424Z,5.43
2022-11-24T01:14:39.407Z,5.43
2022-11-24T01:15:39.427Z,5.43
2022-11-24T01:16:39.390Z,5.43
2022-11-24T01:17:39.362Z,5.43
2022-11-24T01:18:39.369Z,5.42
2022-11-24T01:19:39.341Z,5.42
2022-11-24T01:20:39.367Z,5.41
2022-11-24T01:21:39.329Z,5.40
2022-11-24T01:22:39.318Z,5.39
2022-11-24T01:23:39.335Z,5.39
2022-11-24T01:24:39.284Z,5.39
2022-11-24T01:25:39.266Z,5.38
2022-11-24T01:26:39.290Z,5.38
2022-11-24T01:27:39.238Z,5.37
2022-11-24T01:28:44.920Z,5.37
2022-11-24T01:29:39.249Z,5.36
2022-11-24T01:30:39.203Z,5.36
2022-11-24T01:31:39.197Z,5.36
2022-11-24T01:32:39.166Z,5.36
2022-11-24T01:33:39.157Z,5.36
2022-11-24T01:34:39.160Z,5.36
2022-11-24T01:35:39.136Z,5.35
2022-11-24T01:36:39.126Z,5.35
2022-11-24T01:37:39.099Z,5.36
2022-11-24T01:38:39.086Z,5.36
2022-11-24T01:39:39.071Z,5.36
2022-11-24T01:40:39.075Z,5.36
2022-11-24T01:41:39.041Z,5.36
2022-11-24T01:42:39.027Z,5.36
2022-11-24T01:43:39.029Z,5.36
2022-11-24T01:44:39.002Z,5.35
2022-11-24T01:45:38.988Z,5.35
2022-11-24T01:46:39.048Z,5.35
2022-11-24T01:47:38.963Z,5.34
2022-11-24T01:48:38.951Z,5.34
2022-11-24T01:49:38.948Z,5.34
2022-11-24T01:50:38.919Z,5.34
2022-11-24T01:51:38.916Z,5.34
2022-11-24T01:52:38.911Z,5.34
2022-11-24T01:53:38.952Z,5.34
2022-11-24T01:54:38.866Z,5.35
2022-11-24T01:55:38.930Z,5.35
2022-11-24T01:56:38.849Z,5.35
2022-11-24T01:57:38.830Z,5.34
2022-11-24T01:58:38.819Z,5.34
2022-11-24T01:59:38.833Z,5.34
2022-11-24T02:00:38.787Z,5.34
2022-11-24T02:01:38.858Z,5.34
2022-11-24T02:02:38.812Z,5.35
2022-11-24T02:03:38.765Z,5.35
2022-11-24T02:04:38.747Z,5.35
2022-11-24T02:05:38.742Z,5.35
2022-11-24T02:06:38.719Z,5.35
2022-11-24T02:07:38.782Z,5.35
2022-11-24T02:08:38.680Z,5.34
2022-11-24T02:09:38.733Z,5.33
2022-11-24T02:10:38.653Z,5.33
2022-11-24T02:11:38.658Z,5.32
2022-11-24T02:12:38.641Z,5.32
2022-11-24T02:13:38.675Z,5.32
2022-11-24T02:14:38.626Z,5.32
2022-11-24T02:15:38.653Z,5.32
2022-11-24T02:16:38.577Z,5.32
2022-11-24T02:17:38.597Z,5.31
2022-11-24T02:18:38.551Z,5.31
2022-11-24T02:19:38.588Z,5.30
2022-11-24T02:20:38.523Z,5.30
2022-11-24T02:21:38.524Z,5.29
2022-11-24T02:22:38.507Z,5.29
2022-11-24T02:23:38.489Z,5.29
2022-11-24T02:24:38.468Z,5.29
2022-11-24T02:25:38.481Z,5.29
2022-11-24T02:26:38.443Z,5.29
2022-11-24T02:27:38.461Z,5.28
2022-11-24T02:28:38.414Z,5.28
2022-11-24T02:29:38.412Z,5.28
2022-11-24T02:30:38.388Z,5.29
2022-11-24T02:31:38.501Z,5.29
2022-11-24T02:32:38.368Z,5.29
2022-11-24T02:33:38.356Z,5.29
2022-11-24T02:34:38.343Z,5.28
2022-11-24T02:35:38.369Z,5.28
2022-11-24T02:36:38.326Z,5.28
2022-11-24T02:37:38.298Z,5.28
2022-11-24T02:38:38.281Z,5.28
2022-11-24T02:39:38.282Z,5.28
2022-11-24T02:40:38.259Z,5.28
2022-11-24T02:41:38.255Z,5.28
2022-11-24T02:42:38.228Z,5.28
2022-11-24T02:43:38.234Z,5.29
2022-11-24T02:44:38.224Z,5.29
2022-11-24T02:45:38.198Z,5.29
2022-11-24T02:46:38.198Z,5.29
2022-11-24T02:47:38.177Z,5.29
2022-11-24T02:48:38.160Z,5.29
2022-11-24T02:49:38.142Z,5.28
2022-11-24T02:50:38.128Z,5.28
2022-11-24T02:51:38.110Z,5.28
2022-11-24T02:52:38.104Z,5.27
2022-11-24T02:53:38.083Z,5.27
2022-11-24T02:54:38.073Z,5.27
2022-11-24T02:55:38.074Z,5.27
2022-11-24T02:56:38.040Z,5.28
2022-11-24T02:57:38.035Z,5.28
2022-11-24T02:58:38.026Z,5.28
2022-11-24T02:59:38.036Z,5.28
2022-11-24T03:00:38.018Z,5.28
2022-11-24T03:01:38.081Z,5.28
2022-11-24T03:02:38.101Z,5.28
2022-11-24T03:03:37.953Z,5.27
2022-11-24T03:04:37.932Z,5.27
2022-11-24T03:05:37.927Z,5.26
2022-11-24T03:06:37.906Z,5.26
2022-11-24T03:07:38.003Z,5.27
2022-11-24T03:08:37.899Z,5.27
2022-11-24T03:09:37.904Z,5.27
2022-11-24T03:10:37.877Z,5.28
2022-11-24T03:11:37.842Z,5.28
2022-11-24T03:12:37.863Z,5.28
2022-11-24T03:13:37.828Z,5.28
2022-11-24T03:14:37.817Z,5.28
2022-11-24T03:15:37.845Z,5.28
2022-11-24T03:16:37.779Z,5.28
2022-11-24T03:17:37.775Z,5.28
2022-11-24T03:18:37.748Z,5.29
2022-11-24T03:19:37.744Z,5.29
2022-11-24T03:20:37.743Z,5.30
2022-11-24T03:21:37.710Z,5.30
2022-11-24T03:22:37.694Z,5.31
2022-11-24T03:23:37.689Z,5.31
2022-11-24T03:24:37.696Z,5.31
2022-11-24T03:25:37.656Z,5.32
2022-11-24T03:26:37.640Z,5.32
2022-11-24T03:27:37.644Z,5.32
2022-11-24T03:28:37.619Z,5.32
2022-11-24T03:29:37.610Z,5.32
2022-11-24T03:30:37.605Z,5.32
2022-11-24T03:31:37.654Z,5.33
2022-11-24T03:32:37.571Z,5.33
2022-11-24T03:33:37.550Z,5.34
2022-11-24T03:34:37.573Z,5.34
2022-11-24T03:35:37.584Z,5.34
2022-11-24T03:36:37.513Z,5.33
2022-11-24T03:37:37.516Z,5.33
2022-11-24T03:38:37.510Z,5.32
2022-11-24T03:39:37.487Z,5.32
2022-11-24T03:40:37.466Z,5.33
2022-11-24T03:41:37.462Z,5.33
2022-11-24T03:42:37.440Z,5.34
2022-11-24T03:43:43.223Z,5.34
2022-11-24T03:44:37.439Z,5.34
2022-11-24T03:45:45.818Z,5.34
2022-11-24T03:46:37.569Z,5.35
2022-11-24T03:47:37.380Z,5.35
2022-11-24T03:48:37.356Z,5.35
2022-11-24T03:49:37.359Z,5.35
2022-11-24T03:50:37.332Z,5.35
2022-11-24T03:51:37.332Z,5.35
2022-11-24T03:52:37.320Z,5.35
2022-11-24T03:53:37.292Z,5.35
2022-11-24T03:54:37.293Z,5.35
2022-11-24T03:55:37.318Z,5.35
2022-11-24T03:56:37.250Z,5.36
2022-11-24T03:57:37.273Z,5.37
2022-11-24T03:58:37.226Z,5.37
2022-11-24T03:59:37.230Z,5.37
2022-11-24T04:00:37.212Z,5.38
2022-11-24T04:01:37.254Z,5.38
2022-11-24T04:02:37.229Z,5.39
2022-11-24T04:03:37.165Z,5.39
2022-11-24T04:04:37.157Z,5.39
2022-11-24T04:05:37.141Z,5.39
2022-11-24T04:06:37.146Z,5.39
2022-11-24T04:07:37.203Z,5.39
2022-11-24T04:08:37.100Z,5.38
2022-11-24T04:09:37.093Z,5.38
2022-11-24T04:10:37.090Z,5.37
2022-11-24T04:11:37.082Z,5.37
2022-11-24T04:12:37.044Z,5.37
2022-11-24T04:13:37.054Z,5.37
2022-11-24T04:14:37.364Z,5.37
2022-11-24T04:15:37.052Z,5.37
2022-11-24T04:16:37.038Z,5.37
2022-11-24T04:17:36.991Z,5.37
2022-11-24T04:18:36.973Z,5.37
2022-11-24T04:19:36.971Z,5.38
2022-11-24T04:20:36.949Z,5.38
2022-11-24T04:21:36.982Z,5.38
2022-11-24T04:22:36.942Z,5.37
2022-11-24T04:23:36.940Z,5.37
2022-11-24T04:24:36.885Z,5.37
2022-11-24T04:25:36.872Z,5.37
2022-11-24T04:26:36.858Z,5.38
2022-11-24T04:27:36.868Z,5.38
2022-11-24T04:28:36.868Z,5.38
2022-11-24T04:29:36.821Z,5.39
2022-11-24T04:30:36.821Z,5.39
2022-11-24T04:31:36.873Z,5.40
2022-11-24T04:32:36.778Z,5.40
2022-11-24T04:33:36.781Z,5.40
2022-11-24T04:34:36.944Z,5.41
2022-11-24T04:35:36.769Z,5.42
2022-11-24T04:36:36.742Z,5.43
2022-11-24T04:37:36.716Z,5.43
2022-11-24T04:39:23.989Z,5.43
2022-11-24T04:39:36.695Z,5.44
2022-11-24T04:40:36.678Z,5.44
2022-11-24T04:41:36.757Z,5.45
2022-11-24T04:42:36.649Z,5.46
2022-11-24T04:43:40.635Z,5.47
2022-11-24T04:44:36.875Z,5.47
2022-11-24T04:45:36.696Z,5.48
2022-11-24T04:46:36.624Z,5.49
2022-11-24T04:47:36.653Z,5.50
2022-11-24T04:48:36.595Z,5.50
2022-11-24T04:49:36.557Z,5.51
2022-11-24T04:50:36.591Z,5.51
2022-11-24T04:51:36.528Z,5.52
2022-11-24T04:52:36.520Z,5.52
2022-11-24T04:53:36.541Z,5.52
2022-11-24T04:54:36.603Z,5.53
2022-11-24T04:55:36.494Z,5.53
2022-11-24T04:56:36.466Z,5.53
2022-11-24T04:57:36.458Z,5.54
2022-11-24T04:58:36.441Z,5.54
2022-11-24T04:59:36.425Z,5.55
2022-11-24T05:00:36.434Z,5.56
2022-11-24T05:01:36.428Z,5.57
2022-11-24T05:02:36.385Z,5.58
2022-11-24T05:03:36.415Z,5.58
2022-11-24T05:04:36.931Z,5.58
2022-11-24T05:05:36.377Z,5.58
2022-11-24T05:06:36.340Z,5.59
2022-11-24T05:07:36.359Z,5.59
2022-11-24T05:08:36.318Z,5.60
2022-11-24T05:09:55.213Z,5.60
2022-11-24T05:10:36.289Z,5.61
2022-11-24T05:11:36.271Z,5.62
2022-11-24T05:12:36.268Z,5.62
2022-11-24T05:13:36.261Z,5.63
2022-11-24T05:14:36.445Z,5.63
2022-11-24T05:15:36.219Z,5.63
2022-11-24T05:16:36.272Z,5.64
2022-11-24T05:17:36.210Z,5.64
2022-11-24T05:18:36.165Z,5.64
2022-11-24T05:19:36.157Z,5.65
2022-11-24T05:20:36.203Z,5.65
2022-11-24T05:21:36.129Z,5.65
2022-11-24T05:22:36.134Z,5.65
2022-11-24T05:23:36.114Z,5.65
2022-11-24T05:24:36.320Z,5.66
2022-11-24T05:25:36.085Z,5.66
2022-11-24T05:26:36.071Z,5.67
2022-11-24T05:27:36.051Z,5.67
2022-11-24T05:28:36.034Z,5.67
2022-11-24T05:29:36.040Z,5.67
2022-11-24T05:30:36.023Z,5.67
2022-11-24T05:31:36.034Z,5.67
2022-11-24T05:32:35.994Z,5.67
2022-11-24T05:33:35.982Z,5.67
2022-11-24T05:34:36.270Z,5.67
2022-11-24T05:35:35.947Z,5.67
2022-11-24T05:36:35.934Z,5.67
2022-11-24T05:37:35.918Z,5.68
2022-11-24T05:38:35.930Z,5.68
2022-11-24T05:39:35.889Z,5.68
2022-11-24T05:40:35.889Z,5.69
2022-11-24T05:41:35.868Z,5.69
2022-11-24T05:42:35.855Z,5.70
2022-11-24T05:43:35.877Z,5.71
2022-11-24T05:44:36.125Z,5.71
2022-11-24T05:45:35.820Z,5.72
2022-11-24T05:46:35.883Z,5.73
2022-11-24T05:47:35.812Z,5.73
2022-11-24T05:48:35.772Z,5.73
2022-11-24T05:49:35.763Z,5.74
2022-11-24T05:50:35.754Z,5.74
2022-11-24T05:51:35.729Z,5.75
2022-11-24T05:52:35.750Z,5.75
2022-11-24T05:53:35.715Z,5.76
2022-11-24T05:55:31.866Z,6.91
2022-11-24T05:56:32.791Z,6.47
2022-11-24T05:57:32.796Z,6.18
2022-11-24T05:58:32.754Z,6.02
2022-11-24T05:59:32.733Z,5.94
2022-11-24T06:00:32.771Z,5.89
2022-11-24T06:01:32.774Z,5.86
2022-11-24T06:02:32.854Z,5.85
2022-11-24T06:03:32.676Z,5.84
2022-11-24T06:04:33.126Z,5.84
2022-11-24T06:05:32.668Z,5.84
2022-11-24T06:06:32.654Z,5.84
2022-11-24T06:07:32.674Z,5.84
2022-11-24T06:08:32.631Z,5.85
2022-11-24T06:09:32.609Z,5.85
2022-11-24T06:10:32.601Z,5.86
2022-11-24T06:11:32.586Z,5.86
2022-11-24T06:12:32.634Z,5.86
2022-11-24T06:13:32.597Z,5.86
2022-11-24T06:14:32.896Z,5.86
2022-11-24T06:15:32.540Z,5.87
2022-11-24T06:16:32.581Z,5.86
2022-11-24T06:17:32.500Z,5.86
2022-11-24T06:18:32.507Z,5.86
2022-11-24T06:19:32.521Z,5.85
2022-11-24T06:20:33.194Z,5.85
2022-11-24T06:21:32.499Z,5.85
2022-11-24T06:22:32.446Z,5.85
2022-11-24T06:23:32.463Z,5.85
2022-11-24T06:24:32.814Z,5.86
2022-11-24T06:25:32.402Z,5.86
2022-11-24T06:26:32.398Z,5.86
2022-11-24T06:27:32.362Z,5.86
2022-11-24T06:28:32.345Z,5.86
2022-11-24T06:29:32.359Z,5.86
2022-11-24T06:30:32.319Z,5.85
2022-11-24T06:31:32.333Z,5.85
2022-11-24T06:32:32.312Z,5.85
2022-11-24T06:33:32.289Z,5.86
2022-11-24T06:34:32.763Z,5.86
2022-11-24T06:35:32.249Z,5.86
2022-11-24T06:36:32.271Z,5.87
2022-11-24T06:37:32.226Z,5.87
2022-11-24T06:38:32.210Z,5.87
2022-11-24T06:39:32.196Z,5.88
2022-11-24T06:40:32.212Z,5.88
2022-11-24T06:41:32.177Z,5.88
2022-11-24T06:42:32.188Z,5.88
2022-11-24T06:43:32.137Z,5.88
2022-11-24T06:44:32.777Z,5.88
2022-11-24T06:45:32.183Z,5.88
2022-11-24T06:46:32.107Z,5.88
2022-11-24T06:47:32.089Z,5.88
2022-11-24T06:48:32.105Z,5.88
2022-11-24T06:49:32.076Z,5.88
2022-11-24T06:50:33.746Z,5.88
2022-11-24T06:51:32.071Z,5.88
2022-11-24T06:52:32.030Z,5.88
2022-11-24T06:53:32.012Z,5.88
2022-11-24T06:54:32.255Z,5.88
2022-11-24T06:55:32.005Z,5.89
2022-11-24T06:56:31.983Z,5.89
2022-11-24T06:57:31.983Z,5.89
2022-11-24T06:58:31.945Z,5.88
2022-11-24T06:59:31.943Z,5.88
2022-11-24T07:00:31.948Z,5.88
2022-11-24T07:01:31.993Z,5.88
2022-11-24T07:02:31.895Z,5.88
2022-11-24T07:03:31.984Z,5.87
2022-11-24T07:04:32.160Z,5.87
2022-11-24T07:05:31.853Z,5.87
2022-11-24T07:06:31.846Z,5.88
2022-11-24T07:07:31.945Z,5.88
2022-11-24T07:08:31.830Z,5.89
2022-11-24T07:09:31.822Z,5.89
2022-11-24T07:10:31.824Z,5.90
2022-11-24T07:11:31.780Z,5.90
2022-11-24T07:12:31.770Z,5.90
2022-11-24T07:13:31.755Z,5.89
2022-11-24T07:14:32.081Z,5.89
2022-11-24T07:15:31.721Z,5.88
2022-11-24T07:16:31.759Z,5.87
2022-11-24T07:17:31.687Z,5.86
2022-11-24T07:18:31.690Z,5.84
2022-11-24T07:19:31.678Z,5.83
2022-11-24T07:20:31.653Z,5.83
2022-11-24T07:21:31.663Z,5.82
2022-11-24T07:22:31.636Z,5.81
2022-11-24T07:23:31.634Z,5.81
2022-11-24T07:24:31.692Z,5.80
2022-11-24T07:25:31.598Z,5.79
2022-11-24T07:26:31.638Z,5.78
2022-11-24T07:27:31.558Z,5.77
2022-11-24T07:28:31.562Z,5.76
2022-11-24T07:29:31.550Z,5.75
2022-11-24T07:30:31.566Z,5.73
2022-11-24T07:31:31.518Z,5.71
2022-11-24T07:32:31.489Z,5.70
2022-11-24T07:33:31.482Z,5.69
2022-11-24T07:34:31.610Z,5.68
2022-11-24T07:35:31.447Z,5.67
2022-11-24T07:36:31.493Z,5.67
2022-11-24T07:37:32.043Z,5.66
2022-11-24T07:38:31.424Z,5.66
2022-11-24T07:39:31.413Z,5.66
2022-11-24T07:40:31.398Z,5.67
2022-11-24T07:41:31.372Z,5.67
2022-11-24T07:42:31.371Z,5.68
2022-11-24T07:43:31.349Z,5.69
2022-11-24T07:44:31.551Z,5.70
2022-11-24T07:45:31.377Z,5.72
2022-11-24T07:46:31.308Z,5.73
2022-11-24T07:47:31.296Z,5.74
2022-11-24T07:48:31.306Z,5.75
2022-11-24T07:49:31.270Z,5.76
2022-11-24T07:50:31.264Z,5.78
2022-11-24T07:51:31.258Z,5.79
2022-11-24T07:52:31.508Z,5.81
2022-11-24T07:53:31.208Z,5.85
2022-11-24T07:54:31.345Z,5.91
2022-11-24T07:55:31.183Z,6.03
2022-11-24T07:56:31.171Z,6.16
2022-11-24T07:57:31.169Z,6.29
2022-11-24T07:58:32.968Z,6.40
2022-11-24T07:59:31.207Z,6.49
2022-11-24T08:00:31.135Z,6.53
2022-11-24T08:01:31.138Z,6.54
2022-11-24T08:02:31.094Z,6.53
2022-11-24T08:03:31.141Z,6.51
2022-11-24T08:04:31.143Z,6.49
2022-11-24T08:05:31.051Z,6.46
2022-11-24T08:06:39.382Z,6.42
2022-11-24T08:07:31.083Z,6.39
2022-11-24T08:08:31.014Z,6.36
2022-11-24T08:09:31.003Z,6.33
2022-11-24T08:10:30.997Z,6.31
2022-11-24T08:11:30.974Z,6.30
2022-11-24T08:12:30.959Z,6.28
2022-11-24T08:13:30.965Z,6.27
2022-11-24T08:14:30.951Z,6.26
2022-11-24T08:15:30.919Z,6.26
2022-11-24T08:16:30.945Z,6.27
2022-11-24T08:17:30.901Z,6.28
2022-11-24T08:18:30.898Z,6.29
2022-11-24T08:19:30.879Z,6.30
2022-11-24T08:20:30.897Z,6.31
2022-11-24T08:21:30.851Z,6.32
2022-11-24T08:22:30.839Z,6.33
2022-11-24T08:23:30.846Z,6.34
2022-11-24T08:24:30.799Z,6.35
2022-11-24T08:25:30.798Z,6.36
2022-11-24T08:26:30.787Z,6.38
2022-11-24T08:27:30.768Z,6.39
2022-11-24T08:28:30.750Z,6.41
2022-11-24T08:29:30.754Z,6.43
2022-11-24T08:30:30.728Z,6.46
2022-11-24T08:31:30.802Z,6.49
2022-11-24T08:32:30.739Z,6.51
2022-11-24T08:33:30.693Z,6.53
2022-11-24T08:34:30.702Z,6.55
2022-11-24T08:35:30.660Z,6.57
2022-11-24T08:36:30.645Z,6.58
2022-11-24T08:37:30.673Z,6.59
2022-11-24T08:38:30.657Z,6.60
2022-11-24T08:39:30.610Z,6.61
2022-11-24T08:40:30.592Z,6.62
2022-11-24T08:41:30.573Z,6.63
2022-11-24T08:42:30.702Z,6.64
2022-11-24T08:43:30.577Z,6.65
2022-11-24T08:44:30.548Z,6.65
2022-11-24T08:45:30.939Z,6.66
2022-11-24T08:46:30.635Z,6.67
2022-11-24T08:47:30.501Z,6.68
2022-11-24T08:48:30.489Z,6.69
2022-11-24T08:49:30.480Z,6.69
2022-11-24T08:50:30.467Z,6.70
2022-11-24T08:51:30.457Z,6.70
2022-11-24T08:52:30.437Z,6.70
2022-11-24T08:53:30.445Z,6.70
2022-11-24T08:54:30.404Z,6.70
2022-11-24T08:55:30.401Z,6.70
2022-11-24T08:56:30.391Z,6.71
2022-11-24T08:57:30.380Z,6.71
2022-11-24T08:58:30.354Z,6.72
2022-11-24T08:59:30.485Z,6.72
2022-11-24T09:00:30.334Z,6.72
2022-11-24T09:01:30.403Z,6.74
2022-11-24T09:02:30.314Z,6.76
2022-11-24T09:03:30.335Z,6.78
2022-11-24T09:04:30.374Z,6.82
2022-11-24T09:05:51.187Z,6.87
2022-11-24T09:06:30.305Z,6.90
2022-11-24T09:07:30.289Z,6.93
2022-11-24T09:08:30.251Z,6.95
2022-11-24T09:09:30.272Z,6.96
2022-11-24T09:10:30.207Z,6.97
2022-11-24T09:11:30.192Z,6.97
2022-11-24T09:12:30.180Z,6.97
2022-11-24T09:13:30.175Z,6.97
2022-11-24T09:14:30.162Z,6.97
2022-11-24T09:15:30.138Z,6.97
2022-11-24T09:16:30.196Z,6.97
2022-11-24T09:17:30.131Z,6.97
2022-11-24T09:18:30.646Z,6.97
2022-11-24T09:19:30.081Z,6.98
2022-11-24T09:20:30.085Z,6.98
2022-11-24T09:21:30.086Z,6.98
2022-11-24T09:22:30.044Z,6.99
2022-11-24T09:23:30.025Z,7.00
2022-11-24T09:24:30.023Z,7.01
2022-11-24T09:25:30.036Z,7.03
2022-11-24T09:26:29.998Z,7.04
2022-11-24T09:27:29.987Z,7.06
2022-11-24T09:28:29.996Z,7.07
2022-11-24T09:29:30.005Z,7.08
2022-11-24T09:30:30.029Z,7.09
2022-11-24T09:31:30.027Z,7.10
2022-11-24T09:32:29.915Z,7.12
2022-11-24T09:33:29.898Z,7.13
2022-11-24T09:34:29.893Z,7.15
2022-11-24T09:35:29.897Z,7.16
2022-11-24T09:36:29.891Z,7.17
2022-11-24T09:37:32.822Z,7.19
2022-11-24T09:38:29.853Z,7.20
2022-11-24T09:39:29.851Z,7.21
2022-11-24T09:40:29.819Z,7.22
2022-11-24T09:41:29.806Z,7.23
2022-11-24T09:42:29.799Z,7.24
2022-11-24T09:43:29.780Z,7.24
2022-11-24T09:44:29.763Z,7.24
2022-11-24T09:45:49.312Z,7.24
2022-11-24T09:46:29.859Z,7.24
2022-11-24T09:47:29.769Z,7.25
2022-11-24T09:48:29.701Z,7.25
2022-11-24T09:49:29.713Z,7.26
2022-11-24T09:50:29.679Z,7.26
2022-11-24T09:51:29.670Z,7.26
2022-11-24T09:52:29.653Z,7.26
2022-11-24T09:53:29.689Z,7.27
2022-11-24T09:54:29.655Z,7.28
2022-11-24T09:55:29.622Z,7.29
2022-11-24T09:56:29.603Z,7.30
2022-11-24T09:57:34.269Z,7.31
2022-11-24T09:58:29.583Z,7.32
2022-11-24T09:59:29.571Z,7.34
2022-11-24T10:00:29.570Z,7.35
2022-11-24T10:01:29.605Z,7.37
2022-11-24T10:02:29.516Z,7.39
2022-11-24T10:03:29.513Z,7.41
2022-11-24T10:04:29.667Z,7.43
2022-11-24T10:05:29.495Z,7.45
2022-11-24T10:06:29.468Z,7.48
2022-11-24T10:07:29.525Z,7.50
2022-11-24T10:08:29.440Z,7.52
2022-11-24T10:09:29.453Z,7.53
2022-11-24T10:10:29.428Z,7.54
2022-11-24T10:11:29.427Z,7.54
2022-11-24T10:12:29.412Z,7.54
2022-11-24T10:13:29.391Z,7.54
2022-11-24T10:14:29.401Z,7.52
2022-11-24T10:15:29.455Z,7.51
2022-11-24T10:16:29.540Z,7.49
2022-11-24T10:17:29.353Z,7.47
2022-11-24T10:18:29.346Z,7.43
2022-11-24T10:19:36.373Z,7.39
2022-11-24T10:20:29.342Z,7.33
2022-11-24T10:21:29.326Z,7.26
2022-11-24T10:22:29.272Z,7.20
2022-11-24T10:23:29.265Z,7.14
2022-11-24T10:24:29.263Z,7.08
2022-11-24T10:25:29.255Z,7.02
2022-11-24T10:26:29.234Z,6.97
2022-11-24T10:27:29.218Z,6.93
2022-11-24T10:28:29.206Z,6.89
2022-11-24T10:29:29.198Z,6.85
2022-11-24T10:30:29.158Z,6.82
2022-11-24T10:31:29.231Z,6.80
2022-11-24T10:32:29.134Z,6.77
2022-11-24T10:33:30.952Z,6.74
2022-11-24T10:34:29.146Z,6.69
2022-11-24T10:35:29.173Z,6.64
2022-11-24T10:36:29.071Z,6.59
2022-11-24T10:37:29.093Z,6.54
2022-11-24T10:38:29.064Z,6.50
2022-11-24T10:39:29.064Z,6.46
2022-11-24T10:41:29.026Z,6.40
2022-11-24T10:42:28.994Z,6.35
2022-11-24T10:43:28.992Z,6.31
2022-11-24T10:44:28.970Z,6.26
2022-11-24T10:45:28.985Z,6.22
2022-11-24T10:46:29.555Z,6.18
2022-11-24T10:47:28.928Z,6.14
2022-11-24T10:48:28.915Z,6.10
2022-11-24T10:49:28.916Z,6.06
2022-11-24T10:50:28.930Z,6.02
2022-11-24T10:51:28.882Z,5.98
2022-11-24T10:52:28.864Z,5.95
2022-11-24T10:53:28.889Z,5.92
2022-11-24T10:54:28.859Z,5.89
2022-11-24T10:55:28.838Z,5.85
2022-11-24T10:56:28.825Z,5.81
2022-11-24T10:57:28.793Z,5.77
2022-11-24T10:58:34.282Z,5.73
2022-11-24T10:59:28.835Z,5.70
2022-11-24T11:00:28.763Z,5.69
2022-11-24T11:01:28.822Z,5.67
2022-11-24T11:02:28.765Z,5.66
2022-11-24T11:03:28.718Z,5.64
2022-11-24T11:04:28.696Z,5.61
2022-11-24T11:05:28.699Z,5.57
2022-11-24T11:06:28.677Z,5.53
2022-11-24T11:07:28.734Z,5.51
2022-11-24T11:08:28.660Z,5.49
2022-11-24T11:09:28.632Z,5.46
2022-11-24T11:10:28.627Z,5.44
2022-11-24T11:11:28.609Z,5.42
2022-11-24T11:12:43.220Z,5.41
2022-11-24T11:13:28.591Z,5.40
2022-11-24T11:14:28.564Z,5.39
2022-11-24T11:15:28.724Z,5.38
2022-11-24T11:16:28.572Z,5.36
2022-11-24T11:17:28.528Z,5.35
2022-11-24T11:18:28.522Z,5.34
2022-11-24T11:20:28.497Z,5.33
2022-11-24T11:21:28.482Z,5.32
2022-11-24T11:22:28.462Z,5.32
2022-11-24T11:23:28.456Z,5.31
2022-11-24T11:24:28.433Z,5.31
2022-11-24T11:25:28.422Z,5.31
2022-11-24T11:26:28.436Z,5.31
2022-11-24T11:27:28.398Z,5.32
2022-11-24T11:28:28.400Z,5.32
2022-11-24T11:31:28.360Z,5.33
2022-11-24T11:34:30.305Z,5.33
2022-11-24T11:35:28.327Z,5.32
2022-11-24T11:36:28.279Z,5.32
2022-11-24T11:37:28.272Z,5.32
2022-11-24T11:38:28.251Z,5.32
2022-11-24T11:39:28.252Z,5.32
2022-11-24T11:40:28.233Z,5.31
2022-11-24T11:41:28.214Z,5.31
2022-11-24T11:43:28.204Z,5.31
2022-11-24T11:44:28.180Z,5.32
2022-11-24T11:45:28.252Z,5.33
2022-11-24T11:46:28.190Z,5.34
2022-11-24T11:47:28.151Z,5.35
2022-11-24T11:48:28.127Z,5.37
2022-11-24T11:49:28.121Z,5.37
2022-11-24T11:50:28.147Z,5.38
2022-11-24T11:51:28.181Z,5.38
2022-11-24T11:52:28.072Z,5.39
2022-11-24T11:53:28.063Z,5.40
2022-11-24T11:54:28.045Z,5.41
2022-11-24T11:55:28.053Z,5.41
2022-11-24T11:56:28.030Z,5.41
2022-11-24T11:57:28.006Z,5.41
2022-11-24T11:58:27.998Z,5.40
2022-11-24T11:59:28.012Z,5.40
2022-11-24T12:00:27.994Z,5.39
2022-11-24T12:01:28.080Z,5.39
2022-11-24T12:02:28.103Z,5.39
2022-11-24T12:03:28.082Z,5.39
2022-11-24T12:04:27.919Z,5.39
2022-11-24T12:05:27.904Z,5.40
2022-11-24T12:06:27.891Z,5.40
2022-11-24T12:07:27.935Z,5.39
2022-11-24T12:08:27.857Z,5.38
2022-11-24T12:09:27.849Z,5.38
2022-11-24T12:10:27.837Z,5.37
2022-11-24T12:11:27.823Z,5.37
2022-11-24T12:12:27.805Z,5.38
2022-11-24T12:13:27.822Z,5.39
2022-11-24T12:14:27.813Z,5.40
2022-11-24T12:15:27.782Z,5.39
2022-11-24T12:16:27.952Z,5.40
2022-11-24T12:17:27.756Z,5.39
2022-11-24T12:18:56.017Z,5.39
2022-11-24T12:19:27.722Z,5.39
2022-11-24T12:20:27.706Z,5.39
2022-11-24T12:21:27.705Z,5.40
2022-11-24T12:22:27.696Z,5.41
2022-11-24T12:23:27.674Z,5.42
2022-11-24T12:24:27.709Z,5.43
2022-11-24T12:25:27.658Z,5.44
2022-11-24T12:26:27.653Z,5.44
2022-11-24T12:27:27.639Z,5.44
2022-11-24T12:28:27.591Z,5.45
2022-11-24T12:29:27.593Z,5.45
2022-11-24T12:30:27.593Z,5.46
2022-11-24T12:31:27.610Z,5.47
2022-11-24T12:32:27.550Z,5.48
2022-11-24T12:33:27.553Z,5.49
2022-11-24T12:34:27.517Z,5.49
2022-11-24T12:35:27.509Z,5.49
2022-11-24T12:36:27.495Z,5.49
2022-11-24T12:37:27.500Z,5.49
2022-11-24T12:38:27.471Z,5.50
2022-11-24T12:39:27.455Z,5.50
2022-11-24T12:40:27.441Z,5.51
2022-11-24T12:41:41.818Z,5.51
2022-11-24T12:42:27.422Z,5.52
2022-11-24T12:43:27.437Z,5.53
2022-11-24T12:44:27.418Z,5.54
2022-11-24T12:45:27.365Z,5.55
2022-11-24T12:46:27.480Z,5.57
2022-11-24T12:47:27.343Z,5.57
2022-11-24T12:48:27.336Z,5.57
2022-11-24T12:49:27.350Z,5.56
2022-11-24T12:50:27.306Z,5.56
2022-11-24T12:51:27.286Z,5.56
2022-11-24T12:52:27.320Z,5.57
2022-11-24T12:53:27.269Z,5.58
2022-11-24T12:54:27.262Z,5.60
2022-11-24T12:55:27.243Z,5.61
2022-11-24T12:56:27.217Z,5.63
2022-11-24T12:57:27.250Z,5.64
2022-11-24T12:58:27.208Z,5.65
2022-11-24T12:59:27.185Z,5.66
2022-11-24T13:00:27.165Z,5.66
2022-11-24T13:01:27.184Z,5.66
2022-11-24T13:02:27.286Z,5.67
2022-11-24T13:03:27.161Z,5.67
2022-11-24T13:04:27.116Z,5.67
2022-11-24T13:05:27.107Z,5.68
2022-11-24T13:06:27.087Z,5.69
2022-11-24T13:07:27.115Z,5.69
2022-11-24T13:08:27.073Z,5.71
2022-11-24T13:09:27.061Z,5.71
2022-11-24T13:11:27.043Z,5.73
2022-11-24T13:12:27.037Z,5.73
2022-11-24T13:13:27.006Z,5.74
2022-11-24T13:14:26.982Z,5.76
2022-11-24T13:15:45.160Z,5.77
2022-11-24T13:16:59.326Z,5.79
2022-11-24T13:17:38.386Z,5.81
2022-11-24T13:18:26.978Z,5.83
2022-11-24T13:19:26.941Z,5.84
2022-11-24T13:20:26.925Z,5.86
2022-11-24T13:21:26.894Z,5.87
2022-11-24T13:22:26.895Z,5.88
2022-11-24T13:23:26.887Z,5.88
2022-11-24T13:24:26.860Z,5.88
2022-11-24T13:25:26.845Z,5.88
2022-11-24T13:26:26.816Z,5.89
2022-11-24T13:27:26.842Z,5.88